Terminal Aerodrome Forecast
Issued by NWS

Home | Current Version | Previous Version | Text Only | Print | Product List | Glossary On
Versions: 1 2 3 4 5 6 7 8 9 10 11 12 13 14 15
000
FTUS42 KFFC 182300 RRA
TAFRYY
TAF
KRYY 182341Z 1900/1924 VRB03KT P6SM SCT060
     FM190500 00000KT P6SM SCT025 SCT200
     FM191100 08003KT P6SM BKN008
     FM191400 08004KT P6SM SCT025
     FM191600 09006KT P6SM SCT040
      AMD NOT SKED 1904/1912=

USA.gov is the U.S. government's official web portal to all federal, state and local government web resources and services.